Main page
METAR-TAF:

METAR-TAF

Airports :

Pyongyang Sunan International Airport

Pyongyang, North Korea

latitude: 39-02N, longitude: 125-47E, elevation: 36 m

METAR: missing

Time: 21:32 (13:02 UTC)

Forecast

The report was made 8 hours and 52 minutes ago, at 04:10 UTC
Forecast valid from 20 at 06 UTC to 21 at 06 UTC
Wind 8 kt from the East/Southeast
Visibility: 4000 m
Overcast at a height of 1700 ft
light rain
Temporary
from 20 at 06 UTC to 20 at 20 UTC
Wind 14 kt from the South
Visibility: 2000 m
Few clouds at a height of 2000 ft, Cumulonimbus.
rain showers

TAF: ZKPY 200410Z 2006/2106 12004MPS 4000 -RA OVC017 TX24/2007Z TN22/2021Z TEMPO 2006/2020 18007MPS 2000 SHRA FEW020CB

Weather observations and forecasts of more than 4000 airports (METAR and TAF reports).

The available stations are represented by yellow and red dots on the map.

Hover mouse over dot to see the name of the station.

Then click to see weather observations and forecasts.

To change the map : click on the green buttons with a black cross to zoom in, on the green button with a dash to zoom out, or on the green arrows for adjacent maps.


METAR-TAF: